createdAt,value
2018-07-06T00:00:18.355Z,59.50
2018-07-06T00:02:58.818Z,59.60
2018-07-06T00:05:39.219Z,59.70
2018-07-06T00:08:19.669Z,59.70
2018-07-06T00:10:59.773Z,59.70
2018-07-06T00:13:40.424Z,59.80
2018-07-06T00:16:20.400Z,60.10
2018-07-06T00:19:00.549Z,60.40
2018-07-06T00:21:40.786Z,60.80
2018-07-06T00:24:20.791Z,61.10
2018-07-06T00:27:00.772Z,61.10
2018-07-06T00:29:41.069Z,61.40
2018-07-06T00:32:21.296Z,61.60
2018-07-06T00:35:01.595Z,62.00
2018-07-06T00:40:17.090Z,62.40
2018-07-06T00:42:57.424Z,62.80
2018-07-06T00:45:37.312Z,63.20
2018-07-06T00:48:17.644Z,63.20
2018-07-06T00:50:57.872Z,63.20
2018-07-06T00:53:38.203Z,63.30
2018-07-06T00:56:18.635Z,63.50
2018-07-06T00:58:58.632Z,63.60
2018-07-06T01:01:38.531Z,64.00
2018-07-06T01:06:52.557Z,64.80
2018-07-06T01:09:32.746Z,65.10
2018-07-06T01:12:17.889Z,65.10
2018-07-06T01:14:57.942Z,65.30
2018-07-06T01:17:38.190Z,65.40
2018-07-06T01:20:18.569Z,65.40
2018-07-06T01:22:58.509Z,65.30
2018-07-06T01:25:38.524Z,65.20
2018-07-06T01:28:19.238Z,65.20
2018-07-06T01:30:59.338Z,65.20
2018-07-06T01:33:39.474Z,64.90
2018-07-06T01:36:19.450Z,64.80
2018-07-06T01:38:59.497Z,64.60
2018-07-06T01:41:39.707Z,64.50
2018-07-06T01:44:20.244Z,64.50
2018-07-06T01:47:00.505Z,64.30
2018-07-06T01:52:14.818Z,64.20
2018-07-06T01:54:54.878Z,64.10
2018-07-06T01:57:34.849Z,64.10
2018-07-06T02:00:15.081Z,63.90
2018-07-06T02:02:55.180Z,63.90
2018-07-06T02:05:35.229Z,63.80
2018-07-06T02:08:15.264Z,63.90
2018-07-06T02:10:55.518Z,64.00
2018-07-06T02:13:35.735Z,64.10
2018-07-06T02:16:15.897Z,64.20
2018-07-06T02:18:56.016Z,64.00
2018-07-06T02:21:36.092Z,64.00
2018-07-06T02:24:16.444Z,64.00
2018-07-06T02:26:56.686Z,64.10
2018-07-06T02:29:36.871Z,64.10
2018-07-06T02:32:16.945Z,64.30
2018-07-06T02:34:56.788Z,64.50
2018-07-06T02:37:36.748Z,64.80
2018-07-06T02:40:17.553Z,64.90
2018-07-06T02:42:57.841Z,64.90
2018-07-06T02:45:37.672Z,64.90
2018-07-06T02:48:17.798Z,65.20
2018-07-06T02:50:57.960Z,65.40
2018-07-06T02:53:38.038Z,65.70
2018-07-06T02:56:18.203Z,65.90
2018-07-06T02:58:58.971Z,66.00
2018-07-06T03:01:39.345Z,66.40
2018-07-06T03:04:19.939Z,67.00
2018-07-06T03:07:00.280Z,67.20
2018-07-06T03:09:40.968Z,67.50
2018-07-06T03:12:21.074Z,68.00
2018-07-06T03:15:01.949Z,68.50
2018-07-06T03:17:41.841Z,68.90
2018-07-06T03:20:22.223Z,68.90
2018-07-06T03:23:02.342Z,70.00
2018-07-06T03:25:42.610Z,69.20
2018-07-06T03:28:22.459Z,69.40
2018-07-06T03:31:03.224Z,69.40
2018-07-06T03:33:43.255Z,69.30
2018-07-06T03:36:23.609Z,69.00
2018-07-06T03:39:03.948Z,68.90
2018-07-06T03:41:43.818Z,69.10
2018-07-06T03:44:24.531Z,69.50
2018-07-06T03:47:04.334Z,69.60
2018-07-06T03:49:44.787Z,69.90
2018-07-06T03:52:25.362Z,70.10
2018-07-06T03:55:05.531Z,70.30
2018-07-06T03:57:45.611Z,70.40
2018-07-06T04:00:26.012Z,70.40
2018-07-06T04:03:06.072Z,70.60
2018-07-06T04:05:45.880Z,70.60
2018-07-06T04:08:25.943Z,70.70
2018-07-06T04:11:06.179Z,70.50
2018-07-06T04:13:46.249Z,70.50
2018-07-06T04:16:27.067Z,70.40
2018-07-06T04:19:09.455Z,70.40
2018-07-06T04:21:49.525Z,70.30
2018-07-06T04:24:30.128Z,70.20
2018-07-06T04:27:10.844Z,70.40
2018-07-06T04:29:51.126Z,70.20
2018-07-06T04:32:31.953Z,70.20
2018-07-06T04:35:12.709Z,70.20
2018-07-06T04:37:52.819Z,70.00
2018-07-06T04:40:32.839Z,69.80
2018-07-06T04:43:12.819Z,69.70
2018-07-06T04:45:52.716Z,69.50
2018-07-06T04:48:33.506Z,69.20
2018-07-06T04:51:13.958Z,69.00
2018-07-06T04:53:53.744Z,68.80
2018-07-06T04:56:34.067Z,68.80
2018-07-06T04:59:14.094Z,68.80
2018-07-06T05:01:56.097Z,69.80
2018-07-06T05:04:36.557Z,69.00
2018-07-06T05:07:16.877Z,68.70
2018-07-06T05:09:57.391Z,68.50
2018-07-06T05:12:37.482Z,68.50
2018-07-06T05:15:17.424Z,68.50
2018-07-06T05:17:57.610Z,68.70
2018-07-06T05:20:37.791Z,68.80
2018-07-06T05:23:17.814Z,68.80
2018-07-06T05:25:57.853Z,69.10
2018-07-06T05:28:37.876Z,69.20
2018-07-06T05:31:17.945Z,69.20
2018-07-06T05:33:58.038Z,69.00
2018-07-06T05:36:38.029Z,68.80
2018-07-06T05:39:18.284Z,68.50
2018-07-06T05:41:58.297Z,68.40
2018-07-06T05:44:38.375Z,68.30
2018-07-06T05:47:18.958Z,68.20
2018-07-06T05:49:59.302Z,67.80
2018-07-06T05:52:39.482Z,67.30
2018-07-06T05:55:19.847Z,66.80
2018-07-06T05:57:59.822Z,66.50
2018-07-06T06:00:39.894Z,66.40
2018-07-06T06:05:54.356Z,66.20
2018-07-06T06:08:22.125Z,65.90
2018-07-06T06:10:51.385Z,65.60
2018-07-06T06:13:20.704Z,65.80
2018-07-06T06:15:49.571Z,65.10
2018-07-06T06:18:19.717Z,65.10
2018-07-06T06:20:49.288Z,64.90
2018-07-06T06:23:18.321Z,64.80
2018-07-06T06:25:47.687Z,64.40
2018-07-06T06:28:16.996Z,64.30
2018-07-06T06:30:47.884Z,64.50
2018-07-06T06:33:18.172Z,64.80
2018-07-06T06:38:17.852Z,64.90
2018-07-06T06:43:16.392Z,64.50
2018-07-06T06:45:45.659Z,64.30
2018-07-06T06:48:15.815Z,64.30
2018-07-06T06:50:45.287Z,64.00
2018-07-06T06:53:15.550Z,63.70
2018-07-06T06:55:45.566Z,63.50
2018-07-06T06:58:15.316Z,62.70
2018-07-06T07:00:45.246Z,62.40
2018-07-06T07:03:15.083Z,62.10
2018-07-06T07:05:44.840Z,61.90
2018-07-06T07:08:14.869Z,61.00
2018-07-06T07:10:44.110Z,61.00
2018-07-06T07:13:13.557Z,60.70
2018-07-06T07:15:43.208Z,60.70
2018-07-06T07:18:12.600Z,60.40
2018-07-06T07:20:42.551Z,60.50
2018-07-06T07:23:12.399Z,60.20
2018-07-06T07:25:41.877Z,59.60
2018-07-06T07:28:11.839Z,59.50
2018-07-06T07:30:41.285Z,59.30
2018-07-06T07:33:11.196Z,58.70
2018-07-06T07:35:41.819Z,58.80
2018-07-06T07:38:12.186Z,58.20
2018-07-06T07:40:41.855Z,57.20
2018-07-06T07:43:11.568Z,56.90
2018-07-06T07:45:41.337Z,56.70
2018-07-06T07:48:10.729Z,56.10
2018-07-06T07:50:50.013Z,55.60
2018-07-06T07:55:53.832Z,56.00
2018-07-06T07:58:23.385Z,56.50
2018-07-06T08:00:53.184Z,56.80
2018-07-06T08:05:51.813Z,57.20
2018-07-06T08:08:21.056Z,57.10
2018-07-06T08:10:50.236Z,57.30
2018-07-06T08:13:20.268Z,57.10
2018-07-06T08:15:50.989Z,56.70
2018-07-06T08:18:20.803Z,56.10
2018-07-06T08:20:50.276Z,56.20
2018-07-06T08:23:19.608Z,56.20
2018-07-06T08:25:48.721Z,55.90
2018-07-06T08:28:18.383Z,55.00
2018-07-06T08:30:47.446Z,53.80
2018-07-06T08:33:17.086Z,53.60
2018-07-06T08:35:56.992Z,53.50
2018-07-06T08:38:26.043Z,53.30
2018-07-06T08:40:55.249Z,53.10
2018-07-06T08:43:24.732Z,52.50
2018-07-06T08:45:55.112Z,52.00
2018-07-06T08:48:24.093Z,52.00
2018-07-06T08:50:53.355Z,52.90
2018-07-06T08:53:22.525Z,52.40
2018-07-06T08:55:51.885Z,52.80
2018-07-06T08:58:21.028Z,52.70
2018-07-06T09:00:50.040Z,52.50
2018-07-06T09:05:48.664Z,53.00
2018-07-06T09:08:17.926Z,53.00
2018-07-06T09:10:46.971Z,52.80
2018-07-06T09:13:15.804Z,52.40
2018-07-06T09:15:44.846Z,52.20
2018-07-06T09:18:13.944Z,52.00
2018-07-06T09:20:43.537Z,52.00
2018-07-06T09:23:12.966Z,52.00
2018-07-06T09:25:43.262Z,52.10
2018-07-06T09:30:40.976Z,51.90
2018-07-06T09:33:10.216Z,52.00
2018-07-06T09:35:39.946Z,51.80
2018-07-06T09:38:09.707Z,51.80
2018-07-06T09:40:39.198Z,52.20
2018-07-06T09:43:08.757Z,52.00
2018-07-06T09:45:38.119Z,52.10
2018-07-06T09:48:07.187Z,52.60
2018-07-06T09:50:36.256Z,52.10
2018-07-06T09:55:34.262Z,50.80
2018-07-06T09:58:03.728Z,50.50
2018-07-06T10:00:37.733Z,50.60
2018-07-06T10:03:07.824Z,50.90
2018-07-06T10:05:36.931Z,51.20
2018-07-06T10:08:06.413Z,51.10
2018-07-06T10:10:35.620Z,50.60
2018-07-06T10:13:05.549Z,50.50
2018-07-06T10:15:35.610Z,50.30
2018-07-06T10:18:04.917Z,49.80
2018-07-06T10:20:34.457Z,49.30
2018-07-06T10:23:03.622Z,49.70
2018-07-06T10:25:33.838Z,49.40
2018-07-06T10:28:17.573Z,49.80
2018-07-06T10:32:00.790Z,50.10
2018-07-06T10:34:29.831Z,49.60
2018-07-06T10:37:01.659Z,49.30
2018-07-06T10:39:31.826Z,49.00
2018-07-06T10:42:01.199Z,48.80
2018-07-06T10:44:30.748Z,48.00
2018-07-06T10:47:00.642Z,47.50
2018-07-06T10:49:30.042Z,48.30
2018-07-06T10:51:59.569Z,47.60
2018-07-06T10:54:28.926Z,46.90
2018-07-06T10:56:58.432Z,46.80
2018-07-06T10:59:28.256Z,45.90
2018-07-06T11:01:57.564Z,46.00
2018-07-06T11:04:26.943Z,46.30
2018-07-06T11:06:56.450Z,46.40
2018-07-06T11:09:26.440Z,45.80
2018-07-06T11:11:56.795Z,45.60
2018-07-06T11:14:25.864Z,44.60
2018-07-06T11:16:55.134Z,44.10
2018-07-06T11:19:24.339Z,43.70
2018-07-06T11:21:53.883Z,43.10
2018-07-06T11:24:23.058Z,42.90
2018-07-06T11:26:52.356Z,43.30
2018-07-06T11:29:21.851Z,43.00
2018-07-06T11:31:57.529Z,42.60
2018-07-06T11:34:26.475Z,42.50
2018-07-06T11:36:55.495Z,42.10
2018-07-06T11:39:24.906Z,42.30
2018-07-06T11:41:54.363Z,42.10
2018-07-06T11:44:23.344Z,42.00
2018-07-06T11:49:21.985Z,41.20
2018-07-06T11:51:51.724Z,41.60
2018-07-06T11:54:21.211Z,40.10
2018-07-06T11:56:51.360Z,39.60
2018-07-06T11:59:20.451Z,39.50
2018-07-06T12:01:49.984Z,39.20
2018-07-06T12:04:19.304Z,39.40
2018-07-06T12:06:47.940Z,39.60
2018-07-06T12:09:17.425Z,39.60
2018-07-06T12:11:53.053Z,39.40
2018-07-06T12:14:22.195Z,39.30
2018-07-06T12:16:52.144Z,38.90
2018-07-06T12:19:21.642Z,38.10
2018-07-06T12:21:51.031Z,37.20
2018-07-06T12:24:20.606Z,37.40
2018-07-06T12:26:49.613Z,37.40
2018-07-06T12:29:19.203Z,37.30
2018-07-06T12:31:48.905Z,37.20
2018-07-06T12:34:18.134Z,36.80
2018-07-06T12:36:47.962Z,36.90
2018-07-06T12:39:17.375Z,35.80
2018-07-06T12:41:46.605Z,35.10
2018-07-06T12:44:15.349Z,34.90
2018-07-06T12:46:44.828Z,34.30
2018-07-06T12:49:14.263Z,34.10
2018-07-06T12:51:43.413Z,34.40
2018-07-06T12:54:12.986Z,34.00
2018-07-06T12:56:42.077Z,34.20
2018-07-06T12:59:11.204Z,33.40
2018-07-06T13:01:40.077Z,33.30
2018-07-06T13:04:09.237Z,33.40
2018-07-06T13:06:38.977Z,33.70
2018-07-06T13:09:08.278Z,33.50
2018-07-06T13:11:38.183Z,33.30
2018-07-06T13:14:07.161Z,32.90
2018-07-06T13:16:36.425Z,32.60
2018-07-06T13:19:06.005Z,32.70
2018-07-06T13:21:35.083Z,32.40
2018-07-06T13:24:04.564Z,32.40
2018-07-06T13:26:34.438Z,32.80
2018-07-06T13:29:04.260Z,32.50
2018-07-06T13:31:33.308Z,32.90
2018-07-06T13:34:02.570Z,32.50
2018-07-06T13:36:32.097Z,32.10
2018-07-06T13:39:01.523Z,32.20
2018-07-06T13:41:31.107Z,32.50
2018-07-06T13:44:00.336Z,32.00
2018-07-06T13:46:29.362Z,31.40
2018-07-06T13:48:58.754Z,30.90
2018-07-06T13:53:56.482Z,30.10
2018-07-06T13:56:25.364Z,29.60
2018-07-06T13:58:55.401Z,29.10
2018-07-06T14:01:24.589Z,29.40
2018-07-06T14:03:54.774Z,29.70
2018-07-06T14:06:24.031Z,30.10
2018-07-06T14:08:53.560Z,30.30
2018-07-06T14:11:23.297Z,30.70
2018-07-06T14:13:52.525Z,30.80
2018-07-06T14:16:21.800Z,30.20
2018-07-06T14:18:51.556Z,29.00
2018-07-06T14:21:20.992Z,28.60
2018-07-06T14:23:50.264Z,28.70
2018-07-06T14:26:19.465Z,28.60
2018-07-06T14:28:48.827Z,29.30
2018-07-06T14:31:17.966Z,29.30
2018-07-06T14:33:47.129Z,29.30
2018-07-06T14:36:16.773Z,29.20
2018-07-06T14:38:46.009Z,29.10
2018-07-06T14:41:15.370Z,29.10
2018-07-06T14:43:44.646Z,28.90
2018-07-06T14:46:13.645Z,29.30
2018-07-06T14:48:43.130Z,29.40
2018-07-06T14:53:42.531Z,29.50
2018-07-06T14:56:12.062Z,29.00
2018-07-06T15:01:10.785Z,29.20
2018-07-06T15:03:40.082Z,28.70
2018-07-06T15:06:09.369Z,28.60
2018-07-06T15:08:40.035Z,28.80
2018-07-06T15:11:11.415Z,27.80
2018-07-06T15:13:41.056Z,26.30
2018-07-06T15:16:10.312Z,24.80
2018-07-06T15:18:39.766Z,24.30
2018-07-06T15:21:09.412Z,23.70
2018-07-06T15:23:38.819Z,22.00
2018-07-06T15:26:07.966Z,22.60
2018-07-06T15:28:37.261Z,23.90
2018-07-06T15:31:06.230Z,24.80
2018-07-06T15:33:35.915Z,25.20
2018-07-06T15:36:05.397Z,25.80
2018-07-06T15:38:35.761Z,26.50
2018-07-06T15:41:05.092Z,27.00
2018-07-06T15:43:34.394Z,27.20
2018-07-06T15:46:03.203Z,27.40
2018-07-06T15:48:32.908Z,27.40
2018-07-06T15:51:02.426Z,27.60
2018-07-06T15:53:31.867Z,28.10
2018-07-06T15:56:01.461Z,28.10
2018-07-06T15:58:30.649Z,28.10
2018-07-06T16:01:00.282Z,28.40
2018-07-06T16:03:30.723Z,28.50
2018-07-06T16:06:00.130Z,28.40
2018-07-06T16:08:29.748Z,28.60
2018-07-06T16:10:59.880Z,28.50
2018-07-06T16:13:29.147Z,28.50
2018-07-06T16:15:59.226Z,28.70
2018-07-06T16:18:28.790Z,28.70
2018-07-06T16:20:58.659Z,29.10
2018-07-06T16:25:56.921Z,29.20
2018-07-06T16:28:26.282Z,29.80
2018-07-06T16:30:55.864Z,29.80
2018-07-06T16:33:27.530Z,30.00
2018-07-06T16:35:57.296Z,29.90
2018-07-06T16:38:26.974Z,30.00
2018-07-06T16:40:55.977Z,30.00
2018-07-06T16:43:25.297Z,30.50
2018-07-06T16:45:54.215Z,30.60
2018-07-06T16:48:23.639Z,30.90
2018-07-06T16:50:53.034Z,31.20
2018-07-06T16:53:22.181Z,31.00
2018-07-06T16:55:51.031Z,30.90
2018-07-06T16:58:20.555Z,31.00
2018-07-06T17:00:49.792Z,31.20
2018-07-06T17:03:19.587Z,31.20
2018-07-06T17:05:48.761Z,31.40
2018-07-06T17:08:18.483Z,31.50
2018-07-06T17:10:47.963Z,31.30
2018-07-06T17:13:16.878Z,31.10
2018-07-06T17:15:45.995Z,31.00
2018-07-06T17:18:15.572Z,30.70
2018-07-06T17:20:45.204Z,30.50
2018-07-06T17:23:14.559Z,30.50
2018-07-06T17:25:43.578Z,30.50
2018-07-06T17:28:13.003Z,30.90
2018-07-06T17:30:42.994Z,30.50
2018-07-06T17:33:12.447Z,30.00
2018-07-06T17:35:41.474Z,30.00
2018-07-06T17:38:10.502Z,30.30
2018-07-06T17:40:40.141Z,30.40
2018-07-06T17:43:09.174Z,30.40
2018-07-06T17:45:38.258Z,30.50
2018-07-06T17:50:36.691Z,30.30
2018-07-06T17:53:06.130Z,30.30
2018-07-06T17:55:35.434Z,30.30
2018-07-06T17:58:05.350Z,30.20
2018-07-06T18:00:34.616Z,30.40
2018-07-06T18:03:04.676Z,30.30
2018-07-06T18:05:34.087Z,30.50
2018-07-06T18:08:03.517Z,30.80
2018-07-06T18:10:33.164Z,31.00
2018-07-06T18:13:02.807Z,31.30
2018-07-06T18:18:01.586Z,29.80
2018-07-06T18:20:31.580Z,29.50
2018-07-06T18:23:01.600Z,29.70
2018-07-06T18:25:30.992Z,30.00
2018-07-06T18:28:00.702Z,30.60
2018-07-06T18:30:30.628Z,31.20
2018-07-06T18:33:00.759Z,31.70
2018-07-06T18:35:30.568Z,32.00
2018-07-06T18:37:59.752Z,32.50
2018-07-06T18:40:28.844Z,32.80
2018-07-06T18:42:58.178Z,33.00
2018-07-06T18:45:27.331Z,33.00
2018-07-06T18:47:56.492Z,33.30
2018-07-06T18:50:25.799Z,33.90
2018-07-06T18:52:55.335Z,34.00
2018-07-06T18:55:25.061Z,34.30
2018-07-06T18:57:54.346Z,34.60
2018-07-06T19:00:23.486Z,35.60
2018-07-06T19:02:53.031Z,35.30
2018-07-06T19:05:22.811Z,35.60
2018-07-06T19:07:52.646Z,35.60
2018-07-06T19:10:22.168Z,36.40
2018-07-06T19:12:52.125Z,36.80
2018-07-06T19:17:50.114Z,37.40
2018-07-06T19:20:19.255Z,37.50
2018-07-06T19:22:48.174Z,37.90
2018-07-06T19:27:46.020Z,38.50
2018-07-06T19:30:15.272Z,38.60
2018-07-06T19:32:44.432Z,38.30
2018-07-06T19:35:13.688Z,38.30
2018-07-06T19:37:42.812Z,38.30
2018-07-06T19:40:12.143Z,38.30
2018-07-06T19:42:41.210Z,38.60
2018-07-06T19:45:10.716Z,38.70
2018-07-06T19:47:39.642Z,39.00
2018-07-06T19:50:08.750Z,39.10
2018-07-06T19:52:38.697Z,39.40
2018-07-06T19:55:07.786Z,39.80
2018-07-06T19:57:37.184Z,39.80
2018-07-06T20:00:06.789Z,40.00
2018-07-06T20:05:04.425Z,40.20
2018-07-06T20:07:33.514Z,40.60
2018-07-06T20:10:02.471Z,40.90
2018-07-06T20:12:31.866Z,41.20
2018-07-06T20:15:00.986Z,41.30
2018-07-06T20:17:30.144Z,41.50
2018-07-06T20:19:59.299Z,41.80
2018-07-06T20:22:28.695Z,41.90
2018-07-06T20:24:58.113Z,42.10
2018-07-06T20:27:27.243Z,42.30
2018-07-06T20:29:56.724Z,42.40
2018-07-06T20:32:25.893Z,42.40
2018-07-06T20:34:55.245Z,42.50
2018-07-06T20:37:24.444Z,42.60
2018-07-06T20:39:53.447Z,42.80
2018-07-06T20:42:22.915Z,43.10
2018-07-06T20:44:52.452Z,43.30
2018-07-06T20:49:50.549Z,43.70
2018-07-06T20:52:19.501Z,43.80
2018-07-06T20:54:48.636Z,43.90
2018-07-06T20:57:17.790Z,44.00
2018-07-06T20:59:47.254Z,44.10
2018-07-06T21:02:16.471Z,44.20
2018-07-06T21:04:45.564Z,44.10
2018-07-06T21:07:14.658Z,43.70
2018-07-06T21:09:46.457Z,43.50
2018-07-06T21:12:15.678Z,43.20
2018-07-06T21:14:45.859Z,43.80
2018-07-06T21:17:15.693Z,43.00
2018-07-06T21:19:44.908Z,42.60
2018-07-06T21:22:14.218Z,42.30
2018-07-06T21:24:43.272Z,42.20
2018-07-06T21:27:12.950Z,42.30
2018-07-06T21:32:10.592Z,42.80
2018-07-06T21:34:39.551Z,42.20
2018-07-06T21:37:08.902Z,41.90
2018-07-06T21:39:38.062Z,41.80
2018-07-06T21:42:07.267Z,41.70
2018-07-06T21:44:36.796Z,41.60
2018-07-06T21:47:05.737Z,41.70
2018-07-06T21:49:35.325Z,41.80
2018-07-06T21:54:33.233Z,41.30
2018-07-06T21:57:02.564Z,41.20
2018-07-06T21:59:31.700Z,41.30
2018-07-06T22:02:01.932Z,41.30
2018-07-06T22:04:30.983Z,41.30
2018-07-06T22:06:59.976Z,41.30
2018-07-06T22:09:28.968Z,41.20
2018-07-06T22:11:58.039Z,41.20
2018-07-06T22:14:28.415Z,41.20
2018-07-06T22:16:57.804Z,41.30
2018-07-06T22:19:27.108Z,41.60
2018-07-06T22:21:56.996Z,41.60
2018-07-06T22:24:26.605Z,41.50
2018-07-06T22:26:55.948Z,41.50
2018-07-06T22:29:25.936Z,41.60
2018-07-06T22:31:55.249Z,41.80
2018-07-06T22:34:24.379Z,41.80
2018-07-06T22:36:53.673Z,41.90
2018-07-06T22:39:22.691Z,42.00
2018-07-06T22:44:20.448Z,42.20
2018-07-06T22:46:49.410Z,42.40
2018-07-06T22:49:18.658Z,42.50
2018-07-06T22:51:47.775Z,42.60
2018-07-06T22:54:17.430Z,42.70
2018-07-06T22:56:46.617Z,42.80
2018-07-06T22:59:16.387Z,42.90
2018-07-06T23:01:45.370Z,43.00
2018-07-06T23:04:14.409Z,43.00
2018-07-06T23:06:43.597Z,43.10
2018-07-06T23:09:12.696Z,43.20
2018-07-06T23:11:41.739Z,43.20
2018-07-06T23:14:11.102Z,43.30
2018-07-06T23:16:40.444Z,43.30
2018-07-06T23:19:10.282Z,43.50
2018-07-06T23:21:39.721Z,43.60
2018-07-06T23:24:08.976Z,43.60
2018-07-06T23:26:38.416Z,43.70
2018-07-06T23:29:07.896Z,44.10
2018-07-06T23:31:37.543Z,43.90
2018-07-06T23:34:07.159Z,43.90
2018-07-06T23:36:37.131Z,43.90
2018-07-06T23:39:06.904Z,44.00
2018-07-06T23:41:36.307Z,44.10
2018-07-06T23:44:06.563Z,44.20
2018-07-06T23:46:35.858Z,44.40
2018-07-06T23:49:05.778Z,44.30
2018-07-06T23:54:07.162Z,44.60
2018-07-06T23:56:36.654Z,44.70
2018-07-06T23:59:06.356Z,44.80
